createdAt,value
2018-09-26T00:01:57.356Z,100643.64
2018-09-26T00:04:28.683Z,100632.91
2018-09-26T00:06:57.581Z,100640.70
2018-09-26T00:09:26.159Z,100644.23
2018-09-26T00:11:54.304Z,100644.05
2018-09-26T00:14:22.526Z,100631.25
2018-09-26T00:16:50.895Z,100616.36
2018-09-26T00:19:19.119Z,100625.38
2018-09-26T00:21:47.307Z,100620.61
2018-09-26T00:24:15.505Z,100615.44
2018-09-26T00:26:43.796Z,100614.52
2018-09-26T00:29:11.934Z,100614.66
2018-09-26T00:31:40.179Z,100610.49
2018-09-26T00:34:08.419Z,100607.33
2018-09-26T00:36:36.612Z,100606.57
2018-09-26T00:39:06.432Z,100597.57
2018-09-26T00:41:34.609Z,100598.31
2018-09-26T00:44:02.960Z,100592.41
2018-09-26T00:46:31.164Z,100590.30
2018-09-26T00:48:59.427Z,100581.66
2018-09-26T00:51:27.778Z,100565.63
2018-09-26T00:53:55.912Z,100558.22
2018-09-26T00:56:24.230Z,100555.99
2018-09-26T00:58:52.463Z,100553.13
2018-09-26T01:01:20.763Z,100542.19
2018-09-26T01:03:49.067Z,100549.72
2018-09-26T01:06:17.298Z,100545.61
2018-09-26T01:08:45.630Z,100547.45
2018-09-26T01:11:13.898Z,100547.73
2018-09-26T01:13:42.172Z,100550.62
2018-09-26T01:16:10.442Z,100542.71
2018-09-26T01:18:38.628Z,100541.79
2018-09-26T01:21:07.775Z,100548.21
2018-09-26T01:23:36.081Z,100549.46
2018-09-26T01:26:04.428Z,100541.47
2018-09-26T01:28:32.651Z,100544.36
2018-09-26T01:31:01.115Z,100548.41
2018-09-26T01:33:29.309Z,100542.89
2018-09-26T01:35:57.591Z,100534.81
2018-09-26T01:38:25.871Z,100546.47
2018-09-26T01:40:54.132Z,100538.75
2018-09-26T01:43:22.358Z,100546.41
2018-09-26T01:45:51.126Z,100544.76
2018-09-26T01:48:19.355Z,100548.01
2018-09-26T01:50:47.736Z,100534.75
2018-09-26T01:53:15.968Z,100527.09
2018-09-26T01:55:44.242Z,100523.16
2018-09-26T01:58:12.492Z,100521.04
2018-09-26T02:00:40.672Z,100532.06
2018-09-26T02:03:08.857Z,100527.70
2018-09-26T02:05:37.033Z,100524.98
2018-09-26T02:08:05.248Z,100518.92
2018-09-26T02:10:33.409Z,100524.98
2018-09-26T02:13:01.643Z,100527.21
2018-09-26T02:15:29.850Z,100534.68
2018-09-26T02:17:58.216Z,100531.39
2018-09-26T02:20:26.439Z,100531.64
2018-09-26T02:22:54.648Z,100526.34
2018-09-26T02:25:22.907Z,100527.97
2018-09-26T02:27:51.155Z,100539.06
2018-09-26T02:30:19.407Z,100536.59
2018-09-26T02:32:47.770Z,100539.23
2018-09-26T02:35:16.448Z,100542.63
2018-09-26T02:37:44.884Z,100539.34
2018-09-26T02:40:14.196Z,100537.59
2018-09-26T02:42:42.392Z,100532.45
2018-09-26T02:45:10.685Z,100534.61
2018-09-26T02:47:38.857Z,100532.75
2018-09-26T02:50:07.036Z,100527.01
2018-09-26T02:52:35.307Z,100525.95
2018-09-26T02:55:03.520Z,100524.30
2018-09-26T02:57:31.827Z,100528.98
2018-09-26T03:00:00.048Z,100534.96
2018-09-26T03:02:28.751Z,100536.21
2018-09-26T03:04:56.977Z,100538.05
2018-09-26T03:07:25.311Z,100537.08
2018-09-26T03:09:53.578Z,100533.81
2018-09-26T03:12:21.763Z,100524.98
2018-09-26T03:14:49.966Z,100514.10
2018-09-26T03:17:18.664Z,100511.93
2018-09-26T03:19:46.879Z,100513.23
2018-09-26T03:22:15.134Z,100515.19
2018-09-26T03:24:43.644Z,100518.00
2018-09-26T03:27:11.937Z,100515.70
2018-09-26T03:29:40.055Z,100518.12
2018-09-26T03:32:08.462Z,100511.95
2018-09-26T03:34:36.792Z,100509.62
2018-09-26T03:37:05.707Z,100495.56
2018-09-26T03:39:33.891Z,100489.19
2018-09-26T03:42:02.198Z,100485.20
2018-09-26T03:44:30.669Z,100470.63
2018-09-26T03:46:58.978Z,100468.71
2018-09-26T03:49:27.351Z,100471.88
2018-09-26T03:51:55.636Z,100445.45
2018-09-26T03:54:23.966Z,100436.80
2018-09-26T03:56:52.332Z,100442.04
2018-09-26T03:59:20.623Z,100439.30
2018-09-26T04:01:48.975Z,100434.71
2018-09-26T04:04:17.188Z,100433.24
2018-09-26T04:06:45.441Z,100440.73
2018-09-26T04:09:13.620Z,100446.64
2018-09-26T04:11:41.852Z,100447.53
2018-09-26T04:14:10.117Z,100443.28
2018-09-26T04:16:38.411Z,100434.38
2018-09-26T04:19:06.739Z,100438.79
2018-09-26T04:21:34.955Z,100449.23
2018-09-26T04:24:03.175Z,100456.07
2018-09-26T04:26:31.554Z,100451.13
2018-09-26T04:28:59.725Z,100454.59
2018-09-26T04:31:27.923Z,100464.47
2018-09-26T04:33:56.178Z,100470.83
2018-09-26T04:36:24.343Z,100463.77
2018-09-26T04:38:52.939Z,100467.27
2018-09-26T04:41:20.985Z,100464.63
2018-09-26T04:43:49.196Z,100468.48
2018-09-26T04:46:17.489Z,100479.00
2018-09-26T04:48:45.750Z,100481.09
2018-09-26T04:51:14.020Z,100485.09
2018-09-26T04:53:42.224Z,100482.27
2018-09-26T04:56:10.419Z,100479.06
2018-09-26T04:58:38.621Z,100483.40
2018-09-26T05:01:06.773Z,100488.67
2018-09-26T05:03:34.914Z,100490.81
2018-09-26T05:06:03.183Z,100499.34
2018-09-26T05:08:31.415Z,100509.70
2018-09-26T05:10:59.642Z,100499.50
2018-09-26T05:13:27.862Z,100497.86
2018-09-26T05:15:56.306Z,100505.06
2018-09-26T05:18:24.573Z,100495.99
2018-09-26T05:20:52.818Z,100487.27
2018-09-26T05:23:21.034Z,100492.78
2018-09-26T05:25:49.157Z,100490.66
2018-09-26T05:28:17.305Z,100482.72
2018-09-26T05:30:45.535Z,100483.89
2018-09-26T05:33:13.785Z,100481.14
2018-09-26T05:35:42.043Z,100474.92
2018-09-26T05:38:10.155Z,100476.25
2018-09-26T05:40:38.434Z,100474.26
2018-09-26T05:43:06.679Z,100475.12
2018-09-26T05:45:34.803Z,100478.98
2018-09-26T05:48:03.115Z,100483.33
2018-09-26T05:50:31.353Z,100487.11
2018-09-26T05:52:59.506Z,100490.14
2018-09-26T05:55:27.732Z,100491.05
2018-09-26T05:57:55.975Z,100494.81
2018-09-26T06:00:24.202Z,100493.57
2018-09-26T06:02:52.483Z,100495.95
2018-09-26T06:05:20.747Z,100490.30
2018-09-26T06:07:48.907Z,100492.70
2018-09-26T06:10:17.307Z,100489.86
2018-09-26T06:12:45.527Z,100492.78
2018-09-26T06:15:13.759Z,100486.66
2018-09-26T06:17:42.006Z,100487.56
2018-09-26T06:20:10.220Z,100494.64
2018-09-26T06:22:38.529Z,100500.12
2018-09-26T06:25:06.800Z,100502.94
2018-09-26T06:27:35.172Z,100505.55
2018-09-26T06:30:03.379Z,100504.95
2018-09-26T06:32:32.040Z,100507.17
2018-09-26T06:35:00.359Z,100506.95
2018-09-26T06:37:28.620Z,100508.75
2018-09-26T06:39:56.773Z,100502.77
2018-09-26T06:42:24.990Z,100498.88
2018-09-26T06:44:53.256Z,100499.64
2018-09-26T06:47:21.550Z,100489.47
2018-09-26T06:49:49.775Z,100484.08
2018-09-26T06:52:18.015Z,100480.50
2018-09-26T06:54:46.238Z,100483.98
2018-09-26T06:57:14.384Z,100486.12
2018-09-26T06:59:42.679Z,100493.39
2018-09-26T07:02:11.486Z,100493.94
2018-09-26T07:04:39.759Z,100499.37
2018-09-26T07:07:07.975Z,100505.14
2018-09-26T07:09:36.233Z,100513.09
2018-09-26T07:12:04.523Z,100518.12
2018-09-26T07:14:32.782Z,100525.06
2018-09-26T07:17:01.730Z,100516.07
2018-09-26T07:19:29.932Z,100516.27
2018-09-26T07:21:58.198Z,100511.05
2018-09-26T07:24:26.403Z,100505.02
2018-09-26T07:26:54.562Z,100508.00
2018-09-26T07:29:22.955Z,100522.20
2018-09-26T07:31:51.276Z,100517.69
2018-09-26T07:34:23.679Z,100531.22
2018-09-26T07:36:52.255Z,100531.50
2018-09-26T07:39:20.506Z,100528.05
2018-09-26T07:41:48.743Z,100536.77
2018-09-26T07:44:17.011Z,100534.59
2018-09-26T07:46:45.180Z,100533.88
2018-09-26T07:49:13.355Z,100529.17
2018-09-26T07:51:41.607Z,100518.59
2018-09-26T07:54:09.954Z,100516.84
2018-09-26T07:56:38.278Z,100515.59
2018-09-26T07:59:07.234Z,100512.19
2018-09-26T08:01:35.524Z,100510.73
2018-09-26T08:04:03.691Z,100505.49
2018-09-26T08:06:31.978Z,100506.75
2018-09-26T08:09:00.173Z,100515.62
2018-09-26T08:11:28.519Z,100506.28
2018-09-26T08:13:56.655Z,100510.84
2018-09-26T08:16:24.925Z,100515.84
2018-09-26T08:18:53.191Z,100518.13
2018-09-26T08:21:21.494Z,100515.45
2018-09-26T08:23:49.747Z,100529.16
2018-09-26T08:26:18.011Z,100535.04
2018-09-26T08:28:46.444Z,100535.19
2018-09-26T08:31:14.663Z,100536.55
2018-09-26T08:33:42.883Z,100529.66
2018-09-26T08:36:11.078Z,100530.28
2018-09-26T08:38:39.405Z,100518.37
2018-09-26T08:41:07.598Z,100516.41
2018-09-26T08:43:35.975Z,100518.09
2018-09-26T08:46:04.254Z,100511.89
2018-09-26T08:48:32.523Z,100502.54
2018-09-26T08:51:00.827Z,100497.41
2018-09-26T08:53:29.027Z,100499.08
2018-09-26T08:55:57.199Z,100504.89
2018-09-26T08:58:25.432Z,100497.45
2018-09-26T09:00:54.647Z,100496.12
2018-09-26T09:03:22.897Z,100501.24
2018-09-26T09:05:51.953Z,100521.37
2018-09-26T09:08:20.460Z,100535.86
2018-09-26T09:10:48.741Z,100527.57
2018-09-26T09:13:17.016Z,100518.41
2018-09-26T09:15:45.231Z,100514.13
2018-09-26T09:18:13.475Z,100502.50
2018-09-26T09:20:41.792Z,100504.09
2018-09-26T09:23:10.046Z,100506.66
2018-09-26T09:25:38.220Z,100498.55
2018-09-26T09:28:06.495Z,100502.85
2018-09-26T09:30:34.739Z,100507.09
2018-09-26T09:33:02.901Z,100509.93
2018-09-26T09:35:31.062Z,100513.55
2018-09-26T09:37:59.302Z,100509.98
2018-09-26T09:40:27.626Z,100506.78
2018-09-26T09:42:55.796Z,100507.50
2018-09-26T09:45:23.971Z,100504.35
2018-09-26T09:47:52.140Z,100498.70
2018-09-26T09:50:20.458Z,100501.30
2018-09-26T09:52:48.528Z,100497.48
2018-09-26T09:55:16.756Z,100487.33
2018-09-26T09:57:45.540Z,100487.28
2018-09-26T10:00:14.095Z,100484.47
2018-09-26T10:02:42.373Z,100480.00
2018-09-26T10:05:10.647Z,100485.72
2018-09-26T10:07:38.918Z,100480.75
2018-09-26T10:10:07.240Z,100473.48
2018-09-26T10:12:35.623Z,100478.04
2018-09-26T10:15:03.810Z,100466.98
2018-09-26T10:17:32.094Z,100470.30
2018-09-26T10:20:00.278Z,100463.16
2018-09-26T10:22:28.525Z,100457.05
2018-09-26T10:24:56.826Z,100450.69
2018-09-26T10:27:25.034Z,100447.75
2018-09-26T10:29:53.267Z,100445.13
2018-09-26T10:32:21.643Z,100445.89
2018-09-26T10:34:49.809Z,100449.23
2018-09-26T10:37:17.939Z,100450.35
2018-09-26T10:39:46.164Z,100445.98
2018-09-26T10:42:14.494Z,100450.73
2018-09-26T10:44:42.745Z,100450.42
2018-09-26T10:47:10.935Z,100439.94
2018-09-26T10:49:39.167Z,100440.86
2018-09-26T10:52:07.383Z,100444.41
2018-09-26T10:54:35.567Z,100439.51
2018-09-26T10:57:03.798Z,100433.80
2018-09-26T10:59:32.071Z,100427.86
2018-09-26T11:02:00.418Z,100428.78
2018-09-26T11:04:28.540Z,100425.66
2018-09-26T11:06:56.807Z,100427.43
2018-09-26T11:09:24.975Z,100423.21
2018-09-26T11:11:53.198Z,100425.75
2018-09-26T11:14:21.410Z,100420.49
2018-09-26T11:16:49.675Z,100414.94
2018-09-26T11:19:17.946Z,100416.39
2018-09-26T11:21:46.129Z,100414.25
2018-09-26T11:24:14.428Z,100407.12
2018-09-26T11:26:42.849Z,100399.40
2018-09-26T11:29:10.991Z,100401.59
2018-09-26T11:31:39.216Z,100395.98
2018-09-26T11:34:07.710Z,100394.45
2018-09-26T11:36:35.791Z,100379.75
2018-09-26T11:39:05.222Z,100392.95
2018-09-26T11:41:33.564Z,100398.53
2018-09-26T11:44:01.812Z,100395.78
2018-09-26T11:46:30.131Z,100382.23
2018-09-26T11:49:05.100Z,100381.47
2018-09-26T11:51:33.275Z,100379.86
2018-09-26T11:54:01.553Z,100386.35
2018-09-26T11:56:30.328Z,100374.97
2018-09-26T11:58:58.515Z,100386.55
2018-09-26T12:01:26.763Z,100373.72
2018-09-26T12:03:54.956Z,100379.33
2018-09-26T12:06:23.321Z,100381.35
2018-09-26T12:08:51.585Z,100377.25
2018-09-26T12:11:19.739Z,100376.55
2018-09-26T12:13:47.974Z,100376.48
2018-09-26T12:16:16.258Z,100366.37
2018-09-26T12:18:44.481Z,100355.77
2018-09-26T12:21:12.712Z,100357.92
2018-09-26T12:23:40.951Z,100359.28
2018-09-26T12:26:09.200Z,100361.27
2018-09-26T12:28:37.409Z,100362.38
2018-09-26T12:31:05.596Z,100355.39
2018-09-26T12:33:33.858Z,100357.59
2018-09-26T12:36:02.105Z,100348.73
2018-09-26T12:38:30.382Z,100352.72
2018-09-26T12:40:58.688Z,100344.44
2018-09-26T12:43:26.863Z,100343.30
2018-09-26T12:45:55.135Z,100345.64
2018-09-26T12:48:23.387Z,100342.69
2018-09-26T12:50:51.584Z,100333.33
2018-09-26T12:53:19.921Z,100329.16
2018-09-26T12:55:48.203Z,100325.95
2018-09-26T12:58:16.464Z,100325.50
2018-09-26T13:00:44.742Z,100317.80
2018-09-26T13:03:12.931Z,100319.61
2018-09-26T13:05:41.128Z,100315.89
2018-09-26T13:08:09.475Z,100318.18
2018-09-26T13:10:37.692Z,100314.39
2018-09-26T13:13:05.987Z,100320.42
2018-09-26T13:15:34.160Z,100318.44
2018-09-26T13:18:02.456Z,100313.67
2018-09-26T13:20:30.696Z,100314.19
2018-09-26T13:22:58.994Z,100310.95
2018-09-26T13:25:27.287Z,100314.48
2018-09-26T13:27:55.507Z,100311.44
2018-09-26T13:30:23.913Z,100304.28
2018-09-26T13:32:52.059Z,100288.73
2018-09-26T13:35:20.337Z,100287.52
2018-09-26T13:37:48.615Z,100291.83
2018-09-26T13:40:16.797Z,100286.91
2018-09-26T13:42:45.063Z,100291.67
2018-09-26T13:45:13.254Z,100285.30
2018-09-26T13:47:41.523Z,100282.83
2018-09-26T13:50:09.818Z,100286.43
2018-09-26T13:52:38.063Z,100286.78
2018-09-26T13:55:06.265Z,100282.20
2018-09-26T13:57:34.536Z,100275.17
2018-09-26T14:00:02.851Z,100270.47
2018-09-26T14:02:38.108Z,100277.06
2018-09-26T14:05:06.467Z,100271.19
2018-09-26T14:07:34.661Z,100264.67
2018-09-26T14:10:02.947Z,100259.12
2018-09-26T14:12:31.287Z,100258.94
2018-09-26T14:14:59.550Z,100257.91
2018-09-26T14:17:28.050Z,100254.88
2018-09-26T14:20:12.942Z,100252.66
2018-09-26T14:22:41.250Z,100248.26
2018-09-26T14:25:09.530Z,100255.67
2018-09-26T14:27:37.838Z,100251.38
2018-09-26T14:30:06.277Z,100240.63
2018-09-26T14:32:34.615Z,100241.69
2018-09-26T14:35:02.985Z,100236.69
2018-09-26T14:37:31.319Z,100240.91
2018-09-26T14:39:59.791Z,100243.31
2018-09-26T14:42:28.068Z,100242.96
2018-09-26T14:44:56.407Z,100242.59
2018-09-26T14:47:24.830Z,100252.51
2018-09-26T14:49:53.041Z,100247.63
2018-09-26T14:52:21.327Z,100243.46
2018-09-26T14:54:49.604Z,100245.14
2018-09-26T14:57:17.882Z,100241.88
2018-09-26T14:59:46.215Z,100234.45
2018-09-26T15:02:14.603Z,100240.25
2018-09-26T15:04:42.813Z,100237.31
2018-09-26T15:07:11.179Z,100239.49
2018-09-26T15:09:39.579Z,100245.20
2018-09-26T15:12:08.065Z,100248.28
2018-09-26T15:14:36.643Z,100242.25
2018-09-26T15:17:04.975Z,100242.28
2018-09-26T15:19:33.355Z,100239.25
2018-09-26T15:22:01.760Z,100239.51
2018-09-26T15:24:30.084Z,100244.94
2018-09-26T15:27:05.241Z,100240.58
2018-09-26T15:29:33.804Z,100241.01
2018-09-26T15:32:02.059Z,100242.20
2018-09-26T15:34:30.372Z,100236.17
2018-09-26T15:36:58.703Z,100240.87
2018-09-26T15:39:27.178Z,100236.36
2018-09-26T15:41:55.472Z,100235.03
2018-09-26T15:44:24.009Z,100239.32
2018-09-26T15:46:52.303Z,100237.83
2018-09-26T15:49:20.827Z,100244.01
2018-09-26T15:51:49.163Z,100247.06
2018-09-26T15:54:17.505Z,100253.16
2018-09-26T15:56:46.647Z,100249.65
2018-09-26T15:59:15.119Z,100250.75
2018-09-26T16:01:43.500Z,100239.82
2018-09-26T16:04:23.746Z,100234.19
2018-09-26T16:06:51.927Z,100235.75
2018-09-26T16:09:20.183Z,100237.20
2018-09-26T16:11:48.416Z,100239.34
2018-09-26T16:14:16.798Z,100237.88
2018-09-26T16:16:45.017Z,100235.84
2018-09-26T16:19:13.353Z,100238.27
2018-09-26T16:21:41.544Z,100233.66
2018-09-26T16:24:09.868Z,100235.34
2018-09-26T16:26:38.160Z,100232.64
2018-09-26T16:29:07.153Z,100238.77
2018-09-26T16:31:35.463Z,100239.16
2018-09-26T16:34:03.808Z,100238.57
2018-09-26T16:36:31.988Z,100232.31
2018-09-26T16:39:00.248Z,100234.83
2018-09-26T16:41:28.439Z,100238.48
2018-09-26T16:43:56.796Z,100238.69
2018-09-26T16:46:25.137Z,100244.52
2018-09-26T16:48:57.671Z,100247.72
2018-09-26T16:51:29.562Z,100253.37
2018-09-26T16:54:01.987Z,100247.95
2018-09-26T16:57:09.940Z,100251.70
2018-09-26T16:59:41.995Z,100246.08
2018-09-26T17:02:14.885Z,100244.80
2018-09-26T17:04:47.531Z,100249.16
2018-09-26T17:07:20.068Z,100249.66
2018-09-26T17:09:52.699Z,100249.45
2018-09-26T17:12:35.503Z,100258.00
2018-09-26T17:15:07.989Z,100258.81
2018-09-26T17:17:40.508Z,100271.55
2018-09-26T17:20:23.031Z,100275.50
2018-09-26T17:22:55.055Z,100276.44
2018-09-26T17:25:25.334Z,100278.05
2018-09-26T17:28:41.400Z,100281.23
2018-09-26T17:31:13.493Z,100281.38
2018-09-26T17:33:46.451Z,100277.44
2018-09-26T17:36:19.347Z,100276.13
2018-09-26T17:39:07.221Z,100277.97
2018-09-26T17:41:38.751Z,100283.17
2018-09-26T17:44:11.356Z,100280.28
2018-09-26T17:46:43.896Z,100279.73
2018-09-26T17:49:16.011Z,100287.97
2018-09-26T17:51:49.652Z,100282.94
2018-09-26T17:54:21.902Z,100286.95
2018-09-26T17:56:54.657Z,100292.71
2018-09-26T17:59:33.045Z,100291.30
2018-09-26T18:02:10.092Z,100289.16
2018-09-26T18:04:42.544Z,100291.86
2018-09-26T18:07:15.102Z,100294.33
2018-09-26T18:09:47.770Z,100298.47
2018-09-26T18:12:21.012Z,100293.23
2018-09-26T18:15:02.288Z,100295.41
2018-09-26T18:17:43.650Z,100293.05
2018-09-26T18:20:15.860Z,100297.27
2018-09-26T18:22:50.102Z,100297.23
2018-09-26T22:23:38.366Z,100333.75
2018-09-26T22:26:11.175Z,100332.19
2018-09-26T22:28:44.845Z,100324.77
2018-09-26T22:31:16.896Z,100323.97
2018-09-26T22:33:48.820Z,100324.87
2018-09-26T22:36:25.663Z,100328.35
2018-09-26T22:38:58.659Z,100335.25
2018-09-26T22:41:34.961Z,100333.86
2018-09-26T22:44:07.349Z,100334.09
2018-09-26T22:46:39.839Z,100326.50
2018-09-26T22:49:11.594Z,100327.78
2018-09-26T22:51:43.019Z,100333.58
2018-09-26T22:54:14.576Z,100329.17
2018-09-26T22:56:45.988Z,100332.05
2018-09-26T22:59:16.585Z,100324.64
2018-09-26T23:01:46.891Z,100321.61
2018-09-26T23:04:23.976Z,100319.06
2018-09-26T23:06:56.459Z,100317.33
2018-09-26T23:09:28.427Z,100319.33
2018-09-26T23:11:56.881Z,100315.16
2018-09-26T23:14:25.104Z,100322.40
2018-09-26T23:16:53.419Z,100326.59
2018-09-26T23:19:21.727Z,100321.59
2018-09-26T23:21:50.069Z,100321.15
2018-09-26T23:24:18.331Z,100315.77
2018-09-26T23:26:46.673Z,100323.89
2018-09-26T23:29:14.964Z,100317.08
2018-09-26T23:31:43.239Z,100315.13
2018-09-26T23:34:11.448Z,100314.56
2018-09-26T23:36:39.675Z,100318.02
2018-09-26T23:39:09.516Z,100314.16
2018-09-26T23:41:38.139Z,100315.25
2018-09-26T23:44:06.624Z,100316.45
2018-09-26T23:46:35.467Z,100310.56
2018-09-26T23:49:03.800Z,100313.83
2018-09-26T23:51:32.000Z,100303.31
2018-09-26T23:54:00.794Z,100311.74
2018-09-26T23:56:29.422Z,100308.20
2018-09-26T23:58:58.097Z,100311.08
